sensor_id;sensor_type;location;lat;lon;timestamp;pressure;altitude;pressure_sealevel;temperature;humidity
38225;BME280;24025;48.138;11.428;2022-11-15T00:00:05;95472.97;;;5.25;79.24
38225;BME280;24025;48.138;11.428;2022-11-15T00:02:36;95471.09;;;5.25;78.93
38225;BME280;24025;48.138;11.428;2022-11-15T00:05:06;95466.78;;;5.21;78.65
38225;BME280;24025;48.138;11.428;2022-11-15T00:07:37;95462.31;;;5.21;78.82
38225;BME280;24025;48.138;11.428;2022-11-15T00:10:07;95457.78;;;5.22;78.58
38225;BME280;24025;48.138;11.428;2022-11-15T00:12:37;95451.28;;;5.19;78.35
38225;BME280;24025;48.138;11.428;2022-11-15T00:15:08;95454.91;;;5.15;77.91
38225;BME280;24025;48.138;11.428;2022-11-15T00:17:38;95449.50;;;5.11;77.87
38225;BME280;24025;48.138;11.428;2022-11-15T00:20:09;95451.69;;;5.09;77.72
38225;BME280;24025;48.138;11.428;2022-11-15T00:22:39;95447.41;;;5.04;77.88
38225;BME280;24025;48.138;11.428;2022-11-15T00:25:10;95456.66;;;4.98;77.91
38225;BME280;24025;48.138;11.428;2022-11-15T00:27:40;95451.34;;;4.98;78.24
38225;BME280;24025;48.138;11.428;2022-11-15T00:30:11;95446.84;;;4.99;78.58
38225;BME280;24025;48.138;11.428;2022-11-15T00:32:41;95452.13;;;4.87;78.14
38225;BME280;24025;48.138;11.428;2022-11-15T00:35:12;95457.41;;;4.87;77.68
38225;BME280;24025;48.138;11.428;2022-11-15T00:37:42;95449.78;;;4.85;77.96
38225;BME280;24025;48.138;11.428;2022-11-15T00:40:14;95449.78;;;4.85;78.39
38225;BME280;24025;48.138;11.428;2022-11-15T00:42:45;95442.63;;;4.86;77.94
38225;BME280;24025;48.138;11.428;2022-11-15T00:45:16;95441.09;;;4.84;78.22
38225;BME280;24025;48.138;11.428;2022-11-15T00:47:46;95443.41;;;4.86;78.06
38225;BME280;24025;48.138;11.428;2022-11-15T00:50:17;95431.63;;;4.83;77.93
38225;BME280;24025;48.138;11.428;2022-11-15T00:52:47;95419.59;;;4.74;78.40
38225;BME280;24025;48.138;11.428;2022-11-15T00:55:18;95424.19;;;4.65;78.99
38225;BME280;24025;48.138;11.428;2022-11-15T00:57:49;95413.63;;;4.65;79.21
38225;BME280;24025;48.138;11.428;2022-11-15T01:00:19;95409.78;;;4.62;79.43
38225;BME280;24025;48.138;11.428;2022-11-15T01:02:50;95411.78;;;4.65;78.91
38225;BME280;24025;48.138;11.428;2022-11-15T01:05:20;95406.94;;;4.67;78.17
38225;BME280;24025;48.138;11.428;2022-11-15T01:07:52;95405.38;;;4.66;78.74
38225;BME280;24025;48.138;11.428;2022-11-15T01:10:23;95405.84;;;4.68;78.81
38225;BME280;24025;48.138;11.428;2022-11-15T01:12:54;95405.38;;;4.66;77.60
38225;BME280;24025;48.138;11.428;2022-11-15T01:15:25;95393.63;;;4.64;78.32
38225;BME280;24025;48.138;11.428;2022-11-15T01:17:55;95391.75;;;4.64;77.96
38225;BME280;24025;48.138;11.428;2022-11-15T01:20:26;95395.59;;;4.67;78.39
38225;BME280;24025;48.138;11.428;2022-11-15T01:22:56;95388.78;;;4.66;78.17
38225;BME280;24025;48.138;11.428;2022-11-15T01:25:27;95389.88;;;4.65;78.41
38225;BME280;24025;48.138;11.428;2022-11-15T01:27:57;95390.22;;;4.63;78.40
38225;BME280;24025;48.138;11.428;2022-11-15T01:30:27;95396.88;;;4.48;78.89
38225;BME280;24025;48.138;11.428;2022-11-15T01:32:58;95395.56;;;4.42;79.69
38225;BME280;24025;48.138;11.428;2022-11-15T01:35:28;95392.34;;;4.37;79.27
38225;BME280;24025;48.138;11.428;2022-11-15T01:37:59;95396.69;;;4.33;80.47
38225;BME280;24025;48.138;11.428;2022-11-15T01:40:29;95395.75;;;4.37;80.92
38225;BME280;24025;48.138;11.428;2022-11-15T01:43:19;95386.06;;;4.41;80.38
38225;BME280;24025;48.138;11.428;2022-11-15T01:45:55;95382.91;;;4.48;80.21
38225;BME280;24025;48.138;11.428;2022-11-15T01:48:32;95367.97;;;4.52;79.69
38225;BME280;24025;48.138;11.428;2022-11-15T01:51:08;95369.16;;;4.54;79.41
38225;BME280;24025;48.138;11.428;2022-11-15T01:53:42;95364.22;;;4.53;79.07
38225;BME280;24025;48.138;11.428;2022-11-15T01:56:18;95369.94;;;4.55;79.32
38225;BME280;24025;48.138;11.428;2022-11-15T01:58:51;95362.13;;;4.46;79.84
38225;BME280;24025;48.138;11.428;2022-11-15T02:01:24;95365.97;;;4.49;79.17
38225;BME280;24025;48.138;11.428;2022-11-15T02:03:58;95370.81;;;4.47;78.80
38225;BME280;24025;48.138;11.428;2022-11-15T02:06:29;95367.38;;;4.46;79.04
38225;BME280;24025;48.138;11.428;2022-11-15T02:09:01;95365.97;;;4.49;78.95
38225;BME280;24025;48.138;11.428;2022-11-15T02:11:32;95361.22;;;4.42;78.54
38225;BME280;24025;48.138;11.428;2022-11-15T02:14:03;95360.66;;;4.37;78.24
38225;BME280;24025;48.138;11.428;2022-11-15T02:30:36;95348.41;;;4.20;77.84
38225;BME280;24025;48.138;11.428;2022-11-15T02:36:46;95342.53;;;4.14;78.98
38225;BME280;24025;48.138;11.428;2022-11-15T02:39:42;95328.66;;;4.05;78.58
38225;BME280;24025;48.138;11.428;2022-11-15T02:42:22;95339.53;;;4.04;79.28
38225;BME280;24025;48.138;11.428;2022-11-15T02:45:17;95334.16;;;4.00;78.82
38225;BME280;24025;48.138;11.428;2022-11-15T02:47:50;95330.09;;;4.03;79.16
38225;BME280;24025;48.138;11.428;2022-11-15T02:50:25;95324.00;;;3.90;79.15
38225;BME280;24025;48.138;11.428;2022-11-15T02:52:57;95327.28;;;3.87;81.01
38225;BME280;24025;48.138;11.428;2022-11-15T02:55:30;95323.25;;;3.89;80.19
38225;BME280;24025;48.138;11.428;2022-11-15T03:07:02;95318.41;;;3.70;80.29
38225;BME280;24025;48.138;11.428;2022-11-15T03:09:52;95315.59;;;3.76;80.77
38225;BME280;24025;48.138;11.428;2022-11-15T03:12:28;95317.72;;;3.82;79.57
38225;BME280;24025;48.138;11.428;2022-11-15T03:15:05;95313.06;;;3.79;79.19
38225;BME280;24025;48.138;11.428;2022-11-15T03:17:43;95313.06;;;3.79;79.57
38225;BME280;24025;48.138;11.428;2022-11-15T03:20:16;95317.56;;;3.79;79.69
38225;BME280;24025;48.138;11.428;2022-11-15T03:22:48;95315.25;;;3.77;79.74
38225;BME280;24025;48.138;11.428;2022-11-15T03:25:22;95313.84;;;3.80;78.56
38225;BME280;24025;48.138;11.428;2022-11-15T03:27:56;95306.91;;;3.75;78.87
38225;BME280;24025;48.138;11.428;2022-11-15T03:30:30;95302.84;;;3.78;78.34
38225;BME280;24025;48.138;11.428;2022-11-15T03:33:03;95303.44;;;3.83;78.63
38225;BME280;24025;48.138;11.428;2022-11-15T03:35:41;95296.41;;;3.87;77.90
38225;BME280;24025;48.138;11.428;2022-11-15T03:38:25;95293.00;;;3.87;78.39
38225;BME280;24025;48.138;11.428;2022-11-15T03:41:06;95293.31;;;3.85;77.65
38225;BME280;24025;48.138;11.428;2022-11-15T03:43:47;95281.25;;;3.84;77.80
38225;BME280;24025;48.138;11.428;2022-11-15T03:46:27;95284.84;;;3.80;78.10
38225;BME280;24025;48.138;11.428;2022-11-15T03:49:33;95277.47;;;3.73;78.53
38225;BME280;24025;48.138;11.428;2022-11-15T03:52:04;95273.81;;;3.65;79.75
38225;BME280;24025;48.138;11.428;2022-11-15T03:54:35;95276.56;;;3.69;79.03
38225;BME280;24025;48.138;11.428;2022-11-15T03:57:06;95272.38;;;3.68;78.92
38225;BME280;24025;48.138;11.428;2022-11-15T03:59:36;95269.97;;;3.63;78.65
38225;BME280;24025;48.138;11.428;2022-11-15T04:02:07;95274.47;;;3.62;78.64
38225;BME280;24025;48.138;11.428;2022-11-15T04:04:37;95268.41;;;3.62;79.40
38225;BME280;24025;48.138;11.428;2022-11-15T04:07:08;95266.22;;;3.64;78.95
38225;BME280;24025;48.138;11.428;2022-11-15T04:09:38;95269.63;;;3.64;78.89
38225;BME280;24025;48.138;11.428;2022-11-15T04:12:40;95268.16;;;3.55;78.29
38225;BME280;24025;48.138;11.428;2022-11-15T04:15:16;95262.91;;;3.55;78.29
38225;BME280;24025;48.138;11.428;2022-11-15T04:17:50;95268.28;;;3.58;77.35
38225;BME280;24025;48.138;11.428;2022-11-15T04:20:29;95264.50;;;3.47;78.31
38225;BME280;24025;48.138;11.428;2022-11-15T04:23:20;95263.75;;;3.47;78.45
38225;BME280;24025;48.138;11.428;2022-11-15T04:26:12;95268.09;;;3.42;78.29
38225;BME280;24025;48.138;11.428;2022-11-15T04:28:44;95262.81;;;3.42;78.92
38225;BME280;24025;48.138;11.428;2022-11-15T04:31:33;95265.47;;;3.42;78.61
38225;BME280;24025;48.138;11.428;2022-11-15T04:34:04;95265.59;;;3.46;78.71
38225;BME280;24025;48.138;11.428;2022-11-15T04:36:34;95262.31;;;3.49;77.72
38225;BME280;24025;48.138;11.428;2022-11-15T04:39:24;95265.06;;;3.53;77.66
38225;BME280;24025;48.138;11.428;2022-11-15T04:41:54;95263.38;;;3.36;77.46
38225;BME280;24025;48.138;11.428;2022-11-15T04:44:24;95259.31;;;3.38;78.43
38225;BME280;24025;48.138;11.428;2022-11-15T04:46:55;95255.47;;;3.36;79.00
38225;BME280;24025;48.138;11.428;2022-11-15T04:49:25;95248.09;;;3.41;78.64
38225;BME280;24025;48.138;11.428;2022-11-15T04:51:55;95250.56;;;3.47;78.26
38225;BME280;24025;48.138;11.428;2022-11-15T04:54:26;95255.84;;;3.47;77.67
38225;BME280;24025;48.138;11.428;2022-11-15T04:56:56;95254.59;;;3.44;77.84
38225;BME280;24025;48.138;11.428;2022-11-15T04:59:27;95242.50;;;3.43;77.17
38225;BME280;24025;48.138;11.428;2022-11-15T05:01:57;95245.34;;;3.38;78.22
38225;BME280;24025;48.138;11.428;2022-11-15T05:04:27;95236.44;;;3.30;77.80
38225;BME280;24025;48.138;11.428;2022-11-15T05:06:58;95230.06;;;3.31;78.00
38225;BME280;24025;48.138;11.428;2022-11-15T05:09:28;95230.81;;;3.32;78.07
38225;BME280;24025;48.138;11.428;2022-11-15T05:11:58;95226.53;;;3.27;77.65
38225;BME280;24025;48.138;11.428;2022-11-15T05:14:29;95230.38;;;3.30;78.37
38225;BME280;24025;48.138;11.428;2022-11-15T05:17:00;95228.53;;;3.30;78.05
38225;BME280;24025;48.138;11.428;2022-11-15T05:19:30;95232.25;;;3.29;77.15
38225;BME280;24025;48.138;11.428;2022-11-15T05:22:01;95227.59;;;3.26;77.72
38225;BME280;24025;48.138;11.428;2022-11-15T05:24:31;95227.31;;;3.28;77.41
38225;BME280;24025;48.138;11.428;2022-11-15T05:27:02;95229.19;;;3.27;77.30
38225;BME280;24025;48.138;11.428;2022-11-15T05:29:32;95226.22;;;3.29;77.92
38225;BME280;24025;48.138;11.428;2022-11-15T05:32:06;95217.06;;;3.26;76.98
38225;BME280;24025;48.138;11.428;2022-11-15T05:34:38;95220.19;;;3.28;76.59
38225;BME280;24025;48.138;11.428;2022-11-15T05:37:09;95213.88;;;3.21;76.92
38225;BME280;24025;48.138;11.428;2022-11-15T05:39:40;95206.22;;;3.07;78.46
38225;BME280;24025;48.138;11.428;2022-11-15T05:42:13;95201.88;;;3.11;77.80
38225;BME280;24025;48.138;11.428;2022-11-15T05:44:47;95203.81;;;3.02;77.98
38225;BME280;24025;48.138;11.428;2022-11-15T05:47:24;95205.66;;;3.01;78.18
38225;BME280;24025;48.138;11.428;2022-11-15T05:49:55;95204.91;;;3.01;78.46
38225;BME280;24025;48.138;11.428;2022-11-15T05:52:30;95207.81;;;2.99;78.54
38225;BME280;24025;48.138;11.428;2022-11-15T05:55:05;95208.75;;;3.03;78.54
38225;BME280;24025;48.138;11.428;2022-11-15T05:57:37;95204.34;;;3.07;78.00
38225;BME280;24025;48.138;11.428;2022-11-15T06:00:08;95200.34;;;3.10;77.79
38225;BME280;24025;48.138;11.428;2022-11-15T06:02:39;95198.72;;;2.97;78.16
38225;BME280;24025;48.138;11.428;2022-11-15T06:05:09;95191.47;;;2.94;77.99
38225;BME280;24025;48.138;11.428;2022-11-15T06:07:40;95185.50;;;2.84;78.15
38225;BME280;24025;48.138;11.428;2022-11-15T06:10:10;95186.38;;;2.89;77.91
38225;BME280;24025;48.138;11.428;2022-11-15T06:12:41;95185.63;;;2.88;77.96
38225;BME280;24025;48.138;11.428;2022-11-15T06:15:11;95185.41;;;2.72;78.53
38225;BME280;24025;48.138;11.428;2022-11-15T06:17:41;95184.31;;;2.73;78.98
38225;BME280;24025;48.138;11.428;2022-11-15T06:20:12;95179.53;;;2.75;79.59
38225;BME280;24025;48.138;11.428;2022-11-15T06:22:42;95180.72;;;2.78;79.39
38225;BME280;24025;48.138;11.428;2022-11-15T06:25:13;95187.66;;;2.82;78.78
38225;BME280;24025;48.138;11.428;2022-11-15T06:27:43;95185.16;;;2.86;78.45
38225;BME280;24025;48.138;11.428;2022-11-15T06:30:14;95186.38;;;2.89;77.86
38225;BME280;24025;48.138;11.428;2022-11-15T06:32:44;95181.25;;;2.92;78.31
38225;BME280;24025;48.138;11.428;2022-11-15T06:35:15;95182.78;;;2.93;78.77
38225;BME280;24025;48.138;11.428;2022-11-15T06:37:45;95182.59;;;2.98;78.35
38225;BME280;24025;48.138;11.428;2022-11-15T06:40:16;95189.88;;;3.01;77.75
38225;BME280;24025;48.138;11.428;2022-11-15T06:42:46;95193.72;;;3.04;78.35
38225;BME280;24025;48.138;11.428;2022-11-15T06:45:16;95191.97;;;3.08;77.90
38225;BME280;24025;48.138;11.428;2022-11-15T06:47:47;95206.03;;;3.12;78.04
38225;BME280;24025;48.138;11.428;2022-11-15T06:50:18;95198.41;;;3.19;77.71
38225;BME280;24025;48.138;11.428;2022-11-15T06:52:48;95201.47;;;3.21;77.61
38225;BME280;24025;48.138;11.428;2022-11-15T06:55:18;95202.69;;;3.24;77.43
38225;BME280;24025;48.138;11.428;2022-11-15T06:57:50;95200.63;;;3.29;77.39
38225;BME280;24025;48.138;11.428;2022-11-15T07:00:21;95204.16;;;3.33;76.98
38225;BME280;24025;48.138;11.428;2022-11-15T07:02:52;95199.03;;;3.37;77.86
38225;BME280;24025;48.138;11.428;2022-11-15T07:05:23;95202.97;;;3.43;76.77
38225;BME280;24025;48.138;11.428;2022-11-15T07:07:54;95205.75;;;3.47;77.08
38225;BME280;24025;48.138;11.428;2022-11-15T07:10:26;95214.53;;;3.51;77.71
38225;BME280;24025;48.138;11.428;2022-11-15T07:12:57;95214.97;;;3.53;77.29
38225;BME280;24025;48.138;11.428;2022-11-15T07:15:28;95227.19;;;3.57;77.66
38225;BME280;24025;48.138;11.428;2022-11-15T07:18:01;95220.50;;;3.60;77.21
38225;BME280;24025;48.138;11.428;2022-11-15T07:20:32;95222.63;;;3.66;77.55
38225;BME280;24025;48.138;11.428;2022-11-15T07:23:04;95221.19;;;3.69;77.71
38225;BME280;24025;48.138;11.428;2022-11-15T07:25:34;95216.81;;;3.73;78.13
38225;BME280;24025;48.138;11.428;2022-11-15T07:28:05;95207.59;;;3.79;78.13
38225;BME280;24025;48.138;11.428;2022-11-15T07:30:35;95207.72;;;3.83;78.26
38225;BME280;24025;48.138;11.428;2022-11-15T07:33:05;95202.22;;;3.88;78.34
38225;BME280;24025;48.138;11.428;2022-11-15T07:35:36;95197.19;;;3.83;78.89
38225;BME280;24025;48.138;11.428;2022-11-15T07:38:06;95201.47;;;3.87;78.23
38225;BME280;24025;48.138;11.428;2022-11-15T07:40:37;95198.81;;;3.87;78.65
38225;BME280;24025;48.138;11.428;2022-11-15T07:43:08;95192.91;;;3.90;79.59
38225;BME280;24025;48.138;11.428;2022-11-15T07:45:45;95192.25;;;3.93;80.09
38225;BME280;24025;48.138;11.428;2022-11-15T07:48:15;95182.25;;;3.99;80.20
38225;BME280;24025;48.138;11.428;2022-11-15T07:50:46;95180.63;;;4.07;80.39
38225;BME280;24025;48.138;11.428;2022-11-15T07:53:16;95179.97;;;4.10;80.78
38225;BME280;24025;48.138;11.428;2022-11-15T07:55:46;95166.09;;;4.13;80.72
38225;BME280;24025;48.138;11.428;2022-11-15T07:58:17;95167.44;;;4.19;81.19
38225;BME280;24025;48.138;11.428;2022-11-15T08:00:47;95171.06;;;4.26;81.50
38225;BME280;24025;48.138;11.428;2022-11-15T08:03:18;95158.41;;;4.32;80.91
38225;BME280;24025;48.138;11.428;2022-11-15T08:05:51;95159.72;;;4.38;81.43
38225;BME280;24025;48.138;11.428;2022-11-15T08:08:22;95148.84;;;4.40;81.75
38225;BME280;24025;48.138;11.428;2022-11-15T08:10:52;95149.81;;;4.47;81.19
38225;BME280;24025;48.138;11.428;2022-11-15T08:13:23;95152.78;;;4.58;81.04
38225;BME280;24025;48.138;11.428;2022-11-15T08:16:00;95152.22;;;4.65;80.99
38225;BME280;24025;48.138;11.428;2022-11-15T08:18:31;95140.97;;;4.68;81.74
38225;BME280;24025;48.138;11.428;2022-11-15T08:21:02;95139.66;;;4.74;81.52
38225;BME280;24025;48.138;11.428;2022-11-15T08:23:32;95138.66;;;4.78;80.76
38225;BME280;24025;48.138;11.428;2022-11-15T08:26:04;95146.00;;;4.85;81.14
38225;BME280;24025;48.138;11.428;2022-11-15T08:28:34;95144.59;;;4.88;79.14
38225;BME280;24025;48.138;11.428;2022-11-15T08:31:05;95144.88;;;4.98;79.52
38225;BME280;24025;48.138;11.428;2022-11-15T08:33:35;95149.25;;;5.06;78.29
38225;BME280;24025;48.138;11.428;2022-11-15T08:36:06;95141.63;;;5.17;78.44
38225;BME280;24025;48.138;11.428;2022-11-15T08:38:36;95142.56;;;5.25;77.86
38225;BME280;24025;48.138;11.428;2022-11-15T08:41:14;95137.56;;;5.35;76.58
38225;BME280;24025;48.138;11.428;2022-11-15T08:43:45;95138.94;;;5.45;76.63
38225;BME280;24025;48.138;11.428;2022-11-15T08:46:15;95142.13;;;5.51;74.91
38225;BME280;24025;48.138;11.428;2022-11-15T08:48:46;95137.88;;;5.62;75.44
38225;BME280;24025;48.138;11.428;2022-11-15T08:51:16;95131.66;;;5.70;75.42
38225;BME280;24025;48.138;11.428;2022-11-15T08:53:47;95132.59;;;5.78;74.85
38225;BME280;24025;48.138;11.428;2022-11-15T08:56:18;95127.38;;;5.81;74.66
38225;BME280;24025;48.138;11.428;2022-11-15T08:58:48;95128.03;;;5.90;74.85
38225;BME280;24025;48.138;11.428;2022-11-15T09:01:20;95131.13;;;5.92;74.31
38225;BME280;24025;48.138;11.428;2022-11-15T09:03:51;95125.53;;;5.97;74.32
38225;BME280;24025;48.138;11.428;2022-11-15T09:06:21;95113.94;;;6.02;74.62
38225;BME280;24025;48.138;11.428;2022-11-15T09:08:51;95113.69;;;6.07;74.58
38225;BME280;24025;48.138;11.428;2022-11-15T09:11:22;95107.03;;;6.13;74.89
38225;BME280;24025;48.138;11.428;2022-11-15T09:13:53;95104.53;;;6.20;74.77
38225;BME280;24025;48.138;11.428;2022-11-15T09:16:23;95098.28;;;6.29;74.83
38225;BME280;24025;48.138;11.428;2022-11-15T09:18:54;95094.25;;;6.35;74.89
38225;BME280;24025;48.138;11.428;2022-11-15T09:21:24;95092.63;;;6.46;74.77
38225;BME280;24025;48.138;11.428;2022-11-15T09:23:55;95093.88;;;6.52;75.17
38225;BME280;24025;48.138;11.428;2022-11-15T09:26:26;95085.81;;;6.64;74.85
38225;BME280;24025;48.138;11.428;2022-11-15T09:28:56;95084.50;;;6.74;74.39
38225;BME280;24025;48.138;11.428;2022-11-15T09:31:27;95081.34;;;6.88;74.50
38225;BME280;24025;48.138;11.428;2022-11-15T09:33:57;95070.63;;;7.00;74.11
38225;BME280;24025;48.138;11.428;2022-11-15T09:36:28;95075.75;;;7.12;72.59
38225;BME280;24025;48.138;11.428;2022-11-15T09:38:58;95072.63;;;7.26;72.75
38225;BME280;24025;48.138;11.428;2022-11-15T09:46:54;95062.63;;;7.61;71.17
38225;BME280;24025;48.138;11.428;2022-11-15T09:49:29;95051.81;;;7.74;70.53
38225;BME280;24025;48.138;11.428;2022-11-15T09:52:00;95050.84;;;7.85;67.20
38225;BME280;24025;48.138;11.428;2022-11-15T09:54:34;95041.97;;;8.01;68.21
38225;BME280;24025;48.138;11.428;2022-11-15T09:57:18;95045.97;;;8.14;66.60
38225;BME280;24025;48.138;11.428;2022-11-15T10:00:16;95050.34;;;8.29;66.04
38225;BME280;24025;48.138;11.428;2022-11-15T10:05:47;95039.69;;;8.52;63.21
38225;BME280;24025;48.138;11.428;2022-11-15T10:08:23;95040.22;;;8.65;63.33
38225;BME280;24025;48.138;11.428;2022-11-15T10:10:58;95038.88;;;8.78;61.85
38225;BME280;24025;48.138;11.428;2022-11-15T10:13:32;95028.41;;;8.92;64.49
38225;BME280;24025;48.138;11.428;2022-11-15T10:19:11;95025.66;;;9.22;63.44
38225;BME280;24025;48.138;11.428;2022-11-15T10:21:59;95016.31;;;9.39;62.63
38225;BME280;24025;48.138;11.428;2022-11-15T10:24:34;95010.41;;;9.56;63.01
38225;BME280;24025;48.138;11.428;2022-11-15T10:27:15;95009.78;;;9.74;62.74
38225;BME280;24025;48.138;11.428;2022-11-15T10:29:50;95001.91;;;9.91;62.70
38225;BME280;24025;48.138;11.428;2022-11-15T10:32:21;94994.00;;;10.06;62.18
38225;BME280;24025;48.138;11.428;2022-11-15T10:34:51;94993.00;;;10.25;59.95
38225;BME280;24025;48.138;11.428;2022-11-15T10:37:29;94991.22;;;10.43;57.93
38225;BME280;24025;48.138;11.428;2022-11-15T10:40:20;94996.63;;;10.61;58.07
38225;BME280;24025;48.138;11.428;2022-11-15T10:43:15;94982.59;;;10.85;59.06
38225;BME280;24025;48.138;11.428;2022-11-15T10:45:46;94973.50;;;11.07;56.72
38225;BME280;24025;48.138;11.428;2022-11-15T10:50:48;94971.66;;;11.76;53.10
38225;BME280;24025;48.138;11.428;2022-11-15T10:53:23;94958.25;;;12.08;51.93
38225;BME280;24025;48.138;11.428;2022-11-15T10:55:58;94958.19;;;12.36;50.87
38225;BME280;24025;48.138;11.428;2022-11-15T11:01:15;94944.84;;;13.10;49.88
38225;BME280;24025;48.138;11.428;2022-11-15T11:09:35;94927.66;;;14.38;44.95
38225;BME280;24025;48.138;11.428;2022-11-15T11:12:10;94938.75;;;15.01;44.48
38225;BME280;24025;48.138;11.428;2022-11-15T11:14:41;94919.31;;;15.47;41.73
38225;BME280;24025;48.138;11.428;2022-11-15T11:20:32;94904.72;;;16.55;41.41
38225;BME280;24025;48.138;11.428;2022-11-15T11:43:09;94880.91;;;19.00;37.02
38225;BME280;24025;48.138;11.428;2022-11-15T11:48:42;94878.59;;;19.23;35.73
38225;BME280;24025;48.138;11.428;2022-11-15T11:51:27;94870.41;;;19.27;35.00
38225;BME280;24025;48.138;11.428;2022-11-15T11:54:09;94865.50;;;19.47;36.67
38225;BME280;24025;48.138;11.428;2022-11-15T11:56:44;94856.84;;;19.52;35.34
38225;BME280;24025;48.138;11.428;2022-11-15T11:59:25;94858.88;;;19.61;35.83
38225;BME280;24025;48.138;11.428;2022-11-15T12:02:02;94859.31;;;19.72;35.15
38225;BME280;24025;48.138;11.428;2022-11-15T12:04:45;94851.84;;;19.64;34.21
38225;BME280;24025;48.138;11.428;2022-11-15T12:07:28;94850.78;;;19.48;32.06
38225;BME280;24025;48.138;11.428;2022-11-15T12:10:22;94842.41;;;20.25;33.33
38225;BME280;24025;48.138;11.428;2022-11-15T12:12:58;94840.16;;;20.45;34.29
38225;BME280;24025;48.138;11.428;2022-11-15T12:16:06;94851.72;;;20.46;31.92
38225;BME280;24025;48.138;11.428;2022-11-15T12:18:38;94844.44;;;20.86;31.00
38225;BME280;24025;48.138;11.428;2022-11-15T12:21:16;94844.53;;;21.14;33.66
38225;BME280;24025;48.138;11.428;2022-11-15T12:23:53;94841.47;;;21.52;31.37
38225;BME280;24025;48.138;11.428;2022-11-15T12:26:30;94840.56;;;21.55;32.01
38225;BME280;24025;48.138;11.428;2022-11-15T12:29:29;94840.44;;;21.77;30.35
38225;BME280;24025;48.138;11.428;2022-11-15T12:31:56;94833.81;;;21.87;28.67
38225;BME280;24025;48.138;11.428;2022-11-15T12:34:37;94828.03;;;22.40;28.79
38225;BME280;24025;48.138;11.428;2022-11-15T12:45:37;94814.16;;;25.48;24.20
38225;BME280;24025;48.138;11.428;2022-11-15T12:59:09;94799.84;;;26.45;23.57
38225;BME280;24025;48.138;11.428;2022-11-15T13:12:09;94785.66;;;25.95;23.18
38225;BME280;24025;48.138;11.428;2022-11-15T13:14:56;94797.75;;;25.27;25.19
38225;BME280;24025;48.138;11.428;2022-11-15T13:17:53;94806.16;;;23.91;25.66
38225;BME280;24025;48.138;11.428;2022-11-15T13:20:29;94807.44;;;22.67;27.79
38225;BME280;24025;48.138;11.428;2022-11-15T13:23:11;94802.44;;;21.49;29.22
38225;BME280;24025;48.138;11.428;2022-11-15T13:31:35;94803.28;;;21.28;30.40
38225;BME280;24025;48.138;11.428;2022-11-15T13:36:52;94796.44;;;20.65;32.22
38225;BME280;24025;48.138;11.428;2022-11-15T13:39:27;94808.16;;;20.09;32.81
38225;BME280;24025;48.138;11.428;2022-11-15T13:41:59;94795.84;;;19.39;33.74
38225;BME280;24025;48.138;11.428;2022-11-15T13:44:32;94804.00;;;18.62;33.94
38225;BME280;24025;48.138;11.428;2022-11-15T13:47:13;94800.31;;;17.76;37.32
38225;BME280;24025;48.138;11.428;2022-11-15T13:49:43;94799.09;;;17.32;37.71
38225;BME280;24025;48.138;11.428;2022-11-15T13:52:15;94800.13;;;16.89;40.46
38225;BME280;24025;48.138;11.428;2022-11-15T13:54:56;94810.91;;;16.53;39.52
38225;BME280;24025;48.138;11.428;2022-11-15T13:57:41;94819.22;;;16.23;42.85
38225;BME280;24025;48.138;11.428;2022-11-15T14:00:41;94815.25;;;15.91;44.95
38225;BME280;24025;48.138;11.428;2022-11-15T14:03:33;94810.78;;;15.65;44.73
38225;BME280;24025;48.138;11.428;2022-11-15T14:06:11;94816.78;;;15.49;44.73
38225;BME280;24025;48.138;11.428;2022-11-15T14:11:29;94807.63;;;15.23;46.75
38225;BME280;24025;48.138;11.428;2022-11-15T14:14:02;94819.34;;;15.09;46.84
38225;BME280;24025;48.138;11.428;2022-11-15T14:16:46;94810.63;;;15.01;44.08
38225;BME280;24025;48.138;11.428;2022-11-15T14:24:46;94823.22;;;14.81;44.14
38225;BME280;24025;48.138;11.428;2022-11-15T14:27:27;94814.03;;;14.55;47.82
38225;BME280;24025;48.138;11.428;2022-11-15T14:29:58;94820.72;;;14.40;50.49
38225;BME280;24025;48.138;11.428;2022-11-15T14:32:41;94816.03;;;14.17;50.31
38225;BME280;24025;48.138;11.428;2022-11-15T14:35:22;94813.56;;;13.99;51.16
38225;BME280;24025;48.138;11.428;2022-11-15T14:37:52;94816.81;;;13.83;50.20
38225;BME280;24025;48.138;11.428;2022-11-15T14:40:23;94815.16;;;13.59;50.90
38225;BME280;24025;48.138;11.428;2022-11-15T14:42:53;94822.94;;;13.46;51.88
38225;BME280;24025;48.138;11.428;2022-11-15T14:45:27;94831.94;;;13.25;52.55
38225;BME280;24025;48.138;11.428;2022-11-15T14:47:57;94825.13;;;13.14;52.81
38225;BME280;24025;48.138;11.428;2022-11-15T14:50:27;94822.19;;;12.97;53.68
38225;BME280;24025;48.138;11.428;2022-11-15T14:52:58;94815.38;;;12.89;54.38
38225;BME280;24025;48.138;11.428;2022-11-15T14:55:31;94820.84;;;12.75;54.91
38225;BME280;24025;48.138;11.428;2022-11-15T14:58:06;94815.94;;;12.66;55.75
38225;BME280;24025;48.138;11.428;2022-11-15T15:00:40;94814.91;;;12.42;57.59
38225;BME280;24025;48.138;11.428;2022-11-15T15:03:11;94814.25;;;12.24;58.41
38225;BME280;24025;48.138;11.428;2022-11-15T15:05:43;94818.94;;;12.06;59.73
38225;BME280;24025;48.138;11.428;2022-11-15T15:08:14;94821.63;;;11.99;58.90
38225;BME280;24025;48.138;11.428;2022-11-15T15:10:45;94824.38;;;11.81;60.04
38225;BME280;24025;48.138;11.428;2022-11-15T15:13:23;94820.56;;;11.64;61.58
38225;BME280;24025;48.138;11.428;2022-11-15T15:15:54;94816.03;;;11.47;62.47
38225;BME280;24025;48.138;11.428;2022-11-15T15:18:24;94811.09;;;11.42;61.53
38225;BME280;24025;48.138;11.428;2022-11-15T15:20:58;94815.66;;;11.38;61.61
38225;BME280;24025;48.138;11.428;2022-11-15T15:23:37;94805.78;;;11.24;63.55
38225;BME280;24025;48.138;11.428;2022-11-15T15:26:08;94808.84;;;11.22;63.09
38225;BME280;24025;48.138;11.428;2022-11-15T15:28:39;94808.09;;;11.15;63.46
38225;BME280;24025;48.138;11.428;2022-11-15T15:31:10;94813.41;;;11.11;63.92
38225;BME280;24025;48.138;11.428;2022-11-15T15:33:40;94814.19;;;11.08;64.91